sensor_id;sensor_type;location;lat;lon;timestamp;P1;durP1;ratioP1;P2;durP2;ratioP2
10882;SDS011;5494;51.796;10.952;2022-12-18T00:00:07;7.40;;;3.95;;
10882;SDS011;5494;51.796;10.952;2022-12-18T00:02:41;6.45;;;3.70;;
10882;SDS011;5494;51.796;10.952;2022-12-18T00:05:10;3.70;;;2.95;;
10882;SDS011;5494;51.796;10.952;2022-12-18T00:07:38;5.05;;;3.17;;
10882;SDS011;5494;51.796;10.952;2022-12-18T00:10:06;4.68;;;2.90;;
10882;SDS011;5494;51.796;10.952;2022-12-18T00:12:35;4.60;;;2.70;;
10882;SDS011;5494;51.796;10.952;2022-12-18T00:15:04;6.18;;;2.67;;
10882;SDS011;5494;51.796;10.952;2022-12-18T00:17:33;3.67;;;2.75;;
10882;SDS011;5494;51.796;10.952;2022-12-18T00:20:02;4.03;;;2.70;;
10882;SDS011;5494;51.796;10.952;2022-12-18T00:22:31;7.07;;;3.60;;
10882;SDS011;5494;51.796;10.952;2022-12-18T00:25:00;3.53;;;2.50;;
10882;SDS011;5494;51.796;10.952;2022-12-18T00:27:28;4.20;;;2.17;;
10882;SDS011;5494;51.796;10.952;2022-12-18T00:29:57;3.75;;;2.47;;
10882;SDS011;5494;51.796;10.952;2022-12-18T00:32:25;4.30;;;2.53;;
10882;SDS011;5494;51.796;10.952;2022-12-18T00:34:53;5.07;;;2.42;;
10882;SDS011;5494;51.796;10.952;2022-12-18T00:37:24;6.70;;;2.70;;
10882;SDS011;5494;51.796;10.952;2022-12-18T00:39:52;4.60;;;2.63;;
10882;SDS011;5494;51.796;10.952;2022-12-18T00:42:20;3.42;;;2.47;;
10882;SDS011;5494;51.796;10.952;2022-12-18T00:45:06;4.35;;;2.45;;
10882;SDS011;5494;51.796;10.952;2022-12-18T00:47:38;5.38;;;2.60;;
10882;SDS011;5494;51.796;10.952;2022-12-18T00:50:07;4.03;;;2.53;;
10882;SDS011;5494;51.796;10.952;2022-12-18T00:52:38;3.92;;;2.53;;
10882;SDS011;5494;51.796;10.952;2022-12-18T00:55:07;6.38;;;2.75;;
10882;SDS011;5494;51.796;10.952;2022-12-18T00:57:36;7.45;;;3.28;;
10882;SDS011;5494;51.796;10.952;2022-12-18T01:00:07;7.18;;;3.08;;
10882;SDS011;5494;51.796;10.952;2022-12-18T01:02:42;5.88;;;2.92;;
10882;SDS011;5494;51.796;10.952;2022-12-18T01:05:14;6.38;;;2.97;;
10882;SDS011;5494;51.796;10.952;2022-12-18T01:07:44;5.38;;;3.22;;
10882;SDS011;5494;51.796;10.952;2022-12-18T01:10:12;4.38;;;2.58;;
10882;SDS011;5494;51.796;10.952;2022-12-18T01:12:41;7.32;;;3.08;;
10882;SDS011;5494;51.796;10.952;2022-12-18T01:15:09;7.25;;;3.00;;
10882;SDS011;5494;51.796;10.952;2022-12-18T01:17:41;4.47;;;2.28;;
10882;SDS011;5494;51.796;10.952;2022-12-18T01:20:11;3.67;;;2.45;;
10882;SDS011;5494;51.796;10.952;2022-12-18T01:22:41;5.32;;;2.42;;
10882;SDS011;5494;51.796;10.952;2022-12-18T01:25:10;5.93;;;2.85;;
10882;SDS011;5494;51.796;10.952;2022-12-18T01:27:38;4.85;;;2.70;;
10882;SDS011;5494;51.796;10.952;2022-12-18T01:30:07;4.35;;;2.88;;
10882;SDS011;5494;51.796;10.952;2022-12-18T01:32:36;5.68;;;3.08;;
10882;SDS011;5494;51.796;10.952;2022-12-18T01:35:05;4.38;;;2.20;;
10882;SDS011;5494;51.796;10.952;2022-12-18T01:37:34;5.15;;;2.60;;
10882;SDS011;5494;51.796;10.952;2022-12-18T01:40:03;3.45;;;2.47;;
10882;SDS011;5494;51.796;10.952;2022-12-18T01:42:34;5.10;;;2.85;;
10882;SDS011;5494;51.796;10.952;2022-12-18T01:45:04;3.35;;;2.28;;
10882;SDS011;5494;51.796;10.952;2022-12-18T01:47:51;3.60;;;2.20;;
10882;SDS011;5494;51.796;10.952;2022-12-18T01:50:23;4.57;;;2.28;;
10882;SDS011;5494;51.796;10.952;2022-12-18T01:52:58;6.95;;;2.75;;
10882;SDS011;5494;51.796;10.952;2022-12-18T01:55:35;3.63;;;2.25;;
10882;SDS011;5494;51.796;10.952;2022-12-18T01:58:11;3.47;;;1.80;;
10882;SDS011;5494;51.796;10.952;2022-12-18T02:00:40;5.85;;;2.38;;
10882;SDS011;5494;51.796;10.952;2022-12-18T02:03:10;2.90;;;1.98;;
10882;SDS011;5494;51.796;10.952;2022-12-18T02:05:40;5.07;;;2.35;;
10882;SDS011;5494;51.796;10.952;2022-12-18T02:08:16;5.32;;;2.38;;
10882;SDS011;5494;51.796;10.952;2022-12-18T02:10:54;2.88;;;1.90;;
10882;SDS011;5494;51.796;10.952;2022-12-18T02:13:35;3.55;;;2.35;;
10882;SDS011;5494;51.796;10.952;2022-12-18T02:16:21;3.15;;;2.35;;
10882;SDS011;5494;51.796;10.952;2022-12-18T02:19:04;5.15;;;1.98;;
10882;SDS011;5494;51.796;10.952;2022-12-18T02:21:45;4.38;;;2.80;;
10882;SDS011;5494;51.796;10.952;2022-12-18T02:24:32;3.85;;;1.73;;
10882;SDS011;5494;51.796;10.952;2022-12-18T02:27:12;3.95;;;1.80;;
10882;SDS011;5494;51.796;10.952;2022-12-18T02:29:45;3.38;;;1.80;;
10882;SDS011;5494;51.796;10.952;2022-12-18T02:32:24;2.50;;;1.85;;
10882;SDS011;5494;51.796;10.952;2022-12-18T02:34:57;4.57;;;2.00;;
10882;SDS011;5494;51.796;10.952;2022-12-18T02:37:32;4.55;;;2.50;;
10882;SDS011;5494;51.796;10.952;2022-12-18T02:40:05;2.92;;;1.80;;
10882;SDS011;5494;51.796;10.952;2022-12-18T02:42:38;5.15;;;2.50;;
10882;SDS011;5494;51.796;10.952;2022-12-18T02:45:08;6.88;;;2.00;;
10882;SDS011;5494;51.796;10.952;2022-12-18T02:47:38;3.13;;;2.03;;
10882;SDS011;5494;51.796;10.952;2022-12-18T02:50:13;3.15;;;1.88;;
10882;SDS011;5494;51.796;10.952;2022-12-18T02:53:00;3.50;;;2.08;;
10882;SDS011;5494;51.796;10.952;2022-12-18T02:55:47;4.65;;;2.47;;
10882;SDS011;5494;51.796;10.952;2022-12-18T02:58:34;2.67;;;1.58;;
10882;SDS011;5494;51.796;10.952;2022-12-18T03:01:25;5.05;;;2.10;;
10882;SDS011;5494;51.796;10.952;2022-12-18T03:04:04;2.65;;;1.20;;
10882;SDS011;5494;51.796;10.952;2022-12-18T03:06:43;2.88;;;1.40;;
10882;SDS011;5494;51.796;10.952;2022-12-18T03:09:19;3.92;;;1.60;;
10882;SDS011;5494;51.796;10.952;2022-12-18T03:11:56;4.90;;;1.92;;
10882;SDS011;5494;51.796;10.952;2022-12-18T03:14:50;4.68;;;1.70;;
10882;SDS011;5494;51.796;10.952;2022-12-18T03:17:26;5.20;;;2.10;;
10882;SDS011;5494;51.796;10.952;2022-12-18T03:19:57;4.25;;;1.80;;
10882;SDS011;5494;51.796;10.952;2022-12-18T03:22:32;2.78;;;1.60;;
10882;SDS011;5494;51.796;10.952;2022-12-18T03:25:05;5.10;;;1.77;;
10882;SDS011;5494;51.796;10.952;2022-12-18T03:27:39;2.38;;;1.50;;
10882;SDS011;5494;51.796;10.952;2022-12-18T03:30:17;2.47;;;1.88;;
10882;SDS011;5494;51.796;10.952;2022-12-18T03:32:47;3.17;;;1.75;;
10882;SDS011;5494;51.796;10.952;2022-12-18T03:35:26;2.53;;;1.38;;
10882;SDS011;5494;51.796;10.952;2022-12-18T03:38:03;1.95;;;1.35;;
10882;SDS011;5494;51.796;10.952;2022-12-18T03:40:36;4.15;;;1.50;;
10882;SDS011;5494;51.796;10.952;2022-12-18T03:43:19;5.32;;;2.25;;
10882;SDS011;5494;51.796;10.952;2022-12-18T03:46:05;4.15;;;2.35;;
10882;SDS011;5494;51.796;10.952;2022-12-18T03:48:55;2.45;;;1.77;;
10882;SDS011;5494;51.796;10.952;2022-12-18T03:51:35;2.50;;;1.42;;
10882;SDS011;5494;51.796;10.952;2022-12-18T03:54:10;1.42;;;1.30;;
10882;SDS011;5494;51.796;10.952;2022-12-18T03:56:49;2.10;;;1.85;;
10882;SDS011;5494;51.796;10.952;2022-12-18T03:59:27;3.58;;;1.85;;
10882;SDS011;5494;51.796;10.952;2022-12-18T04:02:00;2.53;;;1.63;;
10882;SDS011;5494;51.796;10.952;2022-12-18T04:04:34;3.63;;;1.55;;
10882;SDS011;5494;51.796;10.952;2022-12-18T04:07:05;1.85;;;1.40;;
10882;SDS011;5494;51.796;10.952;2022-12-18T04:09:37;3.15;;;1.60;;
10882;SDS011;5494;51.796;10.952;2022-12-18T04:12:09;2.50;;;1.48;;
10882;SDS011;5494;51.796;10.952;2022-12-18T04:14:37;3.63;;;1.63;;
10882;SDS011;5494;51.796;10.952;2022-12-18T04:17:09;6.35;;;1.60;;
10882;SDS011;5494;51.796;10.952;2022-12-18T04:19:38;2.25;;;1.50;;
10882;SDS011;5494;51.796;10.952;2022-12-18T04:22:08;2.83;;;1.55;;
10882;SDS011;5494;51.796;10.952;2022-12-18T04:24:42;4.80;;;2.00;;
10882;SDS011;5494;51.796;10.952;2022-12-18T04:27:18;3.20;;;1.60;;
10882;SDS011;5494;51.796;10.952;2022-12-18T04:29:48;2.33;;;1.40;;
10882;SDS011;5494;51.796;10.952;2022-12-18T04:32:18;2.75;;;2.00;;
10882;SDS011;5494;51.796;10.952;2022-12-18T04:34:47;3.40;;;2.03;;
10882;SDS011;5494;51.796;10.952;2022-12-18T04:37:15;2.33;;;1.83;;
10882;SDS011;5494;51.796;10.952;2022-12-18T04:39:44;3.25;;;1.58;;
10882;SDS011;5494;51.796;10.952;2022-12-18T04:42:19;4.22;;;1.58;;
10882;SDS011;5494;51.796;10.952;2022-12-18T04:44:47;5.22;;;1.65;;
10882;SDS011;5494;51.796;10.952;2022-12-18T04:47:16;2.92;;;1.80;;
10882;SDS011;5494;51.796;10.952;2022-12-18T04:49:45;3.88;;;1.98;;
10882;SDS011;5494;51.796;10.952;2022-12-18T04:52:13;3.03;;;2.05;;
10882;SDS011;5494;51.796;10.952;2022-12-18T04:54:42;4.55;;;1.90;;
10882;SDS011;5494;51.796;10.952;2022-12-18T04:57:10;3.70;;;1.90;;
10882;SDS011;5494;51.796;10.952;2022-12-18T04:59:39;4.07;;;1.83;;
10882;SDS011;5494;51.796;10.952;2022-12-18T05:02:07;2.47;;;1.80;;
10882;SDS011;5494;51.796;10.952;2022-12-18T05:04:35;5.20;;;2.22;;
10882;SDS011;5494;51.796;10.952;2022-12-18T05:07:05;4.82;;;2.45;;
10882;SDS011;5494;51.796;10.952;2022-12-18T05:09:33;4.45;;;2.22;;
10882;SDS011;5494;51.796;10.952;2022-12-18T05:12:01;5.07;;;1.90;;
10882;SDS011;5494;51.796;10.952;2022-12-18T05:14:30;3.08;;;1.98;;
10882;SDS011;5494;51.796;10.952;2022-12-18T05:16:58;2.25;;;1.40;;
10882;SDS011;5494;51.796;10.952;2022-12-18T05:19:26;2.67;;;1.48;;
10882;SDS011;5494;51.796;10.952;2022-12-18T05:21:54;3.83;;;1.88;;
10882;SDS011;5494;51.796;10.952;2022-12-18T05:24:25;2.63;;;1.80;;
10882;SDS011;5494;51.796;10.952;2022-12-18T05:26:53;2.20;;;1.75;;
10882;SDS011;5494;51.796;10.952;2022-12-18T05:29:21;3.25;;;2.10;;
10882;SDS011;5494;51.796;10.952;2022-12-18T05:31:49;4.32;;;1.75;;
10882;SDS011;5494;51.796;10.952;2022-12-18T05:34:17;2.08;;;1.40;;
10882;SDS011;5494;51.796;10.952;2022-12-18T05:36:45;4.05;;;1.70;;
10882;SDS011;5494;51.796;10.952;2022-12-18T05:39:13;3.30;;;1.77;;
10882;SDS011;5494;51.796;10.952;2022-12-18T05:41:43;5.28;;;1.70;;
10882;SDS011;5494;51.796;10.952;2022-12-18T05:44:12;2.20;;;1.48;;
10882;SDS011;5494;51.796;10.952;2022-12-18T05:46:40;1.42;;;1.15;;
10882;SDS011;5494;51.796;10.952;2022-12-18T05:49:08;1.77;;;1.50;;
10882;SDS011;5494;51.796;10.952;2022-12-18T05:51:36;4.05;;;1.80;;
10882;SDS011;5494;51.796;10.952;2022-12-18T05:54:06;3.47;;;1.80;;
10882;SDS011;5494;51.796;10.952;2022-12-18T05:56:35;2.80;;;1.50;;
10882;SDS011;5494;51.796;10.952;2022-12-18T05:59:05;3.17;;;1.35;;
10882;SDS011;5494;51.796;10.952;2022-12-18T06:01:33;4.05;;;1.35;;
10882;SDS011;5494;51.796;10.952;2022-12-18T06:04:01;3.80;;;1.25;;
10882;SDS011;5494;51.796;10.952;2022-12-18T06:06:30;2.22;;;1.45;;
10882;SDS011;5494;51.796;10.952;2022-12-18T06:08:59;4.05;;;1.33;;
10882;SDS011;5494;51.796;10.952;2022-12-18T06:11:27;3.17;;;1.80;;
10882;SDS011;5494;51.796;10.952;2022-12-18T06:13:56;3.33;;;1.88;;
10882;SDS011;5494;51.796;10.952;2022-12-18T06:16:27;3.15;;;1.50;;
10882;SDS011;5494;51.796;10.952;2022-12-18T06:18:56;2.75;;;1.60;;
10882;SDS011;5494;51.796;10.952;2022-12-18T06:21:25;3.17;;;1.67;;
10882;SDS011;5494;51.796;10.952;2022-12-18T06:23:57;4.15;;;1.60;;
10882;SDS011;5494;51.796;10.952;2022-12-18T06:26:26;3.25;;;1.30;;
10882;SDS011;5494;51.796;10.952;2022-12-18T06:28:54;5.30;;;1.40;;
10882;SDS011;5494;51.796;10.952;2022-12-18T06:31:24;3.83;;;1.30;;
10882;SDS011;5494;51.796;10.952;2022-12-18T06:33:54;3.55;;;1.67;;
10882;SDS011;5494;51.796;10.952;2022-12-18T06:36:21;3.47;;;1.77;;
10882;SDS011;5494;51.796;10.952;2022-12-18T06:38:50;4.50;;;1.50;;
10882;SDS011;5494;51.796;10.952;2022-12-18T06:41:18;3.35;;;1.48;;
10882;SDS011;5494;51.796;10.952;2022-12-18T06:43:48;3.15;;;2.63;;
10882;SDS011;5494;51.796;10.952;2022-12-18T06:46:20;4.03;;;2.05;;
10882;SDS011;5494;51.796;10.952;2022-12-18T06:48:49;5.47;;;1.80;;
10882;SDS011;5494;51.796;10.952;2022-12-18T06:51:22;3.38;;;1.70;;
10882;SDS011;5494;51.796;10.952;2022-12-18T06:53:52;1.60;;;1.20;;
10882;SDS011;5494;51.796;10.952;2022-12-18T06:56:21;1.70;;;1.23;;
10882;SDS011;5494;51.796;10.952;2022-12-18T06:58:49;2.63;;;1.45;;
10882;SDS011;5494;51.796;10.952;2022-12-18T07:01:17;6.13;;;1.75;;
10882;SDS011;5494;51.796;10.952;2022-12-18T07:03:45;4.18;;;1.17;;
10882;SDS011;5494;51.796;10.952;2022-12-18T07:06:14;2.35;;;1.20;;
10882;SDS011;5494;51.796;10.952;2022-12-18T07:08:48;2.63;;;1.25;;
10882;SDS011;5494;51.796;10.952;2022-12-18T07:11:17;3.17;;;1.40;;
10882;SDS011;5494;51.796;10.952;2022-12-18T07:13:46;3.58;;;1.50;;
10882;SDS011;5494;51.796;10.952;2022-12-18T07:16:15;2.80;;;1.20;;
10882;SDS011;5494;51.796;10.952;2022-12-18T07:18:50;3.88;;;1.67;;
10882;SDS011;5494;51.796;10.952;2022-12-18T07:21:19;3.75;;;1.42;;
10882;SDS011;5494;51.796;10.952;2022-12-18T07:23:50;3.20;;;1.67;;
10882;SDS011;5494;51.796;10.952;2022-12-18T07:26:19;2.55;;;1.70;;
10882;SDS011;5494;51.796;10.952;2022-12-18T07:28:49;2.90;;;1.88;;
10882;SDS011;5494;51.796;10.952;2022-12-18T07:31:19;3.13;;;2.10;;
10882;SDS011;5494;51.796;10.952;2022-12-18T07:33:49;3.72;;;2.25;;
10882;SDS011;5494;51.796;10.952;2022-12-18T07:36:18;7.68;;;4.32;;
10882;SDS011;5494;51.796;10.952;2022-12-18T07:38:51;3.35;;;2.53;;
10882;SDS011;5494;51.796;10.952;2022-12-18T07:41:19;3.67;;;2.10;;
10882;SDS011;5494;51.796;10.952;2022-12-18T07:43:48;2.67;;;1.40;;
10882;SDS011;5494;51.796;10.952;2022-12-18T07:46:16;4.40;;;2.03;;
10882;SDS011;5494;51.796;10.952;2022-12-18T07:48:45;3.55;;;1.92;;
10882;SDS011;5494;51.796;10.952;2022-12-18T07:51:15;4.13;;;1.77;;
10882;SDS011;5494;51.796;10.952;2022-12-18T07:53:45;3.80;;;2.10;;
10882;SDS011;5494;51.796;10.952;2022-12-18T07:56:19;4.07;;;2.42;;
10882;SDS011;5494;51.796;10.952;2022-12-18T07:58:53;3.72;;;1.98;;
10882;SDS011;5494;51.796;10.952;2022-12-18T08:01:21;4.53;;;2.38;;
10882;SDS011;5494;51.796;10.952;2022-12-18T08:03:50;3.45;;;2.08;;
10882;SDS011;5494;51.796;10.952;2022-12-18T08:06:18;3.58;;;2.10;;
10882;SDS011;5494;51.796;10.952;2022-12-18T08:08:50;4.25;;;2.45;;
10882;SDS011;5494;51.796;10.952;2022-12-18T08:11:21;3.42;;;2.13;;
10882;SDS011;5494;51.796;10.952;2022-12-18T08:13:51;5.25;;;2.50;;
10882;SDS011;5494;51.796;10.952;2022-12-18T08:16:20;4.10;;;2.17;;
10882;SDS011;5494;51.796;10.952;2022-12-18T08:18:51;3.65;;;2.17;;
10882;SDS011;5494;51.796;10.952;2022-12-18T08:21:20;3.13;;;1.90;;
10882;SDS011;5494;51.796;10.952;2022-12-18T08:23:52;2.42;;;1.92;;
10882;SDS011;5494;51.796;10.952;2022-12-18T08:26:23;5.53;;;2.45;;
10882;SDS011;5494;51.796;10.952;2022-12-18T08:28:55;4.28;;;2.72;;
10882;SDS011;5494;51.796;10.952;2022-12-18T08:31:26;6.95;;;2.60;;
10882;SDS011;5494;51.796;10.952;2022-12-18T08:33:56;3.55;;;2.13;;
10882;SDS011;5494;51.796;10.952;2022-12-18T08:36:24;4.40;;;2.38;;
10882;SDS011;5494;51.796;10.952;2022-12-18T08:38:53;2.90;;;2.30;;
10882;SDS011;5494;51.796;10.952;2022-12-18T08:41:22;2.40;;;1.65;;
10882;SDS011;5494;51.796;10.952;2022-12-18T08:43:50;3.22;;;0.98;;
10882;SDS011;5494;51.796;10.952;2022-12-18T08:46:37;2.53;;;1.05;;
10882;SDS011;5494;51.796;10.952;2022-12-18T08:49:08;1.65;;;1.30;;
10882;SDS011;5494;51.796;10.952;2022-12-18T08:51:38;1.88;;;1.13;;
10882;SDS011;5494;51.796;10.952;2022-12-18T08:54:07;2.83;;;1.60;;
10882;SDS011;5494;51.796;10.952;2022-12-18T08:56:40;2.63;;;1.65;;
10882;SDS011;5494;51.796;10.952;2022-12-18T08:59:08;3.28;;;1.70;;
10882;SDS011;5494;51.796;10.952;2022-12-18T09:01:44;3.63;;;1.65;;
10882;SDS011;5494;51.796;10.952;2022-12-18T09:04:14;2.78;;;1.70;;
10882;SDS011;5494;51.796;10.952;2022-12-18T09:06:43;2.95;;;1.38;;
10882;SDS011;5494;51.796;10.952;2022-12-18T09:09:11;3.10;;;1.85;;
10882;SDS011;5494;51.796;10.952;2022-12-18T09:11:41;4.70;;;1.80;;
10882;SDS011;5494;51.796;10.952;2022-12-18T09:14:09;2.85;;;2.00;;
10882;SDS011;5494;51.796;10.952;2022-12-18T09:16:37;3.95;;;1.90;;
10882;SDS011;5494;51.796;10.952;2022-12-18T09:19:06;2.63;;;1.80;;
10882;SDS011;5494;51.796;10.952;2022-12-18T09:21:34;1.92;;;1.17;;
10882;SDS011;5494;51.796;10.952;2022-12-18T09:24:03;1.88;;;1.30;;
10882;SDS011;5494;51.796;10.952;2022-12-18T09:26:34;1.47;;;1.00;;
10882;SDS011;5494;51.796;10.952;2022-12-18T09:29:04;3.03;;;1.10;;
10882;SDS011;5494;51.796;10.952;2022-12-18T09:31:33;1.63;;;0.90;;
10882;SDS011;5494;51.796;10.952;2022-12-18T09:34:06;1.53;;;1.10;;
10882;SDS011;5494;51.796;10.952;2022-12-18T09:36:34;2.95;;;1.27;;
10882;SDS011;5494;51.796;10.952;2022-12-18T09:39:02;2.05;;;1.52;;
10882;SDS011;5494;51.796;10.952;2022-12-18T09:41:44;3.67;;;1.80;;
10882;SDS011;5494;51.796;10.952;2022-12-18T09:44:24;2.88;;;1.60;;
10882;SDS011;5494;51.796;10.952;2022-12-18T09:47:00;3.78;;;1.55;;
10882;SDS011;5494;51.796;10.952;2022-12-18T09:49:40;2.58;;;1.95;;
10882;SDS011;5494;51.796;10.952;2022-12-18T09:52:14;2.67;;;2.00;;
10882;SDS011;5494;51.796;10.952;2022-12-18T09:54:52;5.38;;;2.00;;
10882;SDS011;5494;51.796;10.952;2022-12-18T09:57:28;2.72;;;1.75;;
10882;SDS011;5494;51.796;10.952;2022-12-18T10:00:04;3.58;;;1.60;;
10882;SDS011;5494;51.796;10.952;2022-12-18T10:02:45;2.00;;;1.30;;
10882;SDS011;5494;51.796;10.952;2022-12-18T10:05:15;3.23;;;1.63;;
10882;SDS011;5494;51.796;10.952;2022-12-18T10:07:50;2.80;;;1.48;;
10882;SDS011;5494;51.796;10.952;2022-12-18T10:10:32;2.60;;;1.30;;
10882;SDS011;5494;51.796;10.952;2022-12-18T10:13:15;3.55;;;1.50;;
10882;SDS011;5494;51.796;10.952;2022-12-18T10:15:58;1.55;;;1.00;;
10882;SDS011;5494;51.796;10.952;2022-12-18T10:18:45;2.72;;;1.30;;
10882;SDS011;5494;51.796;10.952;2022-12-18T10:21:36;3.40;;;1.80;;
10882;SDS011;5494;51.796;10.952;2022-12-18T10:24:15;4.85;;;2.28;;
10882;SDS011;5494;51.796;10.952;2022-12-18T10:26:59;6.25;;;3.47;;
10882;SDS011;5494;51.796;10.952;2022-12-18T10:29:41;6.03;;;4.10;;
10882;SDS011;5494;51.796;10.952;2022-12-18T10:32:17;5.78;;;4.03;;
10882;SDS011;5494;51.796;10.952;2022-12-18T10:34:49;4.07;;;3.05;;
10882;SDS011;5494;51.796;10.952;2022-12-18T10:37:27;3.92;;;2.90;;
10882;SDS011;5494;51.796;10.952;2022-12-18T10:40:08;3.70;;;2.20;;
10882;SDS011;5494;51.796;10.952;2022-12-18T10:42:48;2.97;;;1.77;;
10882;SDS011;5494;51.796;10.952;2022-12-18T10:45:32;2.35;;;1.10;;
10882;SDS011;5494;51.796;10.952;2022-12-18T10:48:01;1.60;;;1.30;;
10882;SDS011;5494;51.796;10.952;2022-12-18T10:50:31;2.28;;;1.33;;
10882;SDS011;5494;51.796;10.952;2022-12-18T10:53:24;2.75;;;1.15;;
10882;SDS011;5494;51.796;10.952;2022-12-18T10:55:56;2.33;;;1.20;;
10882;SDS011;5494;51.796;10.952;2022-12-18T10:58:29;2.63;;;1.40;;
10882;SDS011;5494;51.796;10.952;2022-12-18T11:01:03;3.20;;;1.48;;
10882;SDS011;5494;51.796;10.952;2022-12-18T11:03:38;4.97;;;3.88;;
10882;SDS011;5494;51.796;10.952;2022-12-18T11:06:09;3.10;;;1.02;;
10882;SDS011;5494;51.796;10.952;2022-12-18T11:08:39;4.13;;;1.52;;
10882;SDS011;5494;51.796;10.952;2022-12-18T11:11:15;1.30;;;1.10;;
10882;SDS011;5494;51.796;10.952;2022-12-18T11:13:54;1.75;;;1.05;;
10882;SDS011;5494;51.796;10.952;2022-12-18T11:16:30;1.40;;;0.90;;
10882;SDS011;5494;51.796;10.952;2022-12-18T11:22:03;1.88;;;1.10;;
10882;SDS011;5494;51.796;10.952;2022-12-18T11:24:52;2.22;;;0.90;;
10882;SDS011;5494;51.796;10.952;2022-12-18T11:27:47;2.33;;;1.08;;
10882;SDS011;5494;51.796;10.952;2022-12-18T11:30:21;1.70;;;1.00;;
10882;SDS011;5494;51.796;10.952;2022-12-18T11:32:52;1.58;;;0.95;;
10882;SDS011;5494;51.796;10.952;2022-12-18T11:35:33;2.22;;;1.42;;
10882;SDS011;5494;51.796;10.952;2022-12-18T11:38:15;1.90;;;1.15;;
10882;SDS011;5494;51.796;10.952;2022-12-18T11:40:51;1.50;;;0.98;;
10882;SDS011;5494;51.796;10.952;2022-12-18T11:43:27;4.18;;;1.42;;
10882;SDS011;5494;51.796;10.952;2022-12-18T11:46:04;2.67;;;1.92;;
10882;SDS011;5494;51.796;10.952;2022-12-18T11:48:45;3.10;;;1.58;;
10882;SDS011;5494;51.796;10.952;2022-12-18T11:51:25;4.13;;;1.70;;
10882;SDS011;5494;51.796;10.952;2022-12-18T11:54:04;2.67;;;1.75;;
10882;SDS011;5494;51.796;10.952;2022-12-18T11:56:42;2.53;;;1.70;;
10882;SDS011;5494;51.796;10.952;2022-12-18T11:59:19;2.50;;;1.10;;
10882;SDS011;5494;51.796;10.952;2022-12-18T12:02:04;1.90;;;1.30;;
10882;SDS011;5494;51.796;10.952;2022-12-18T12:05:03;1.83;;;0.93;;
10882;SDS011;5494;51.796;10.952;2022-12-18T12:07:50;3.10;;;0.80;;
10882;SDS011;5494;51.796;10.952;2022-12-18T12:10:30;3.90;;;1.90;;
10882;SDS011;5494;51.796;10.952;2022-12-18T12:13:15;2.55;;;1.75;;
10882;SDS011;5494;51.796;10.952;2022-12-18T12:16:03;2.72;;;1.70;;
10882;SDS011;5494;51.796;10.952;2022-12-18T12:18:47;3.88;;;2.22;;
10882;SDS011;5494;51.796;10.952;2022-12-18T12:21:35;3.85;;;2.25;;
10882;SDS011;5494;51.796;10.952;2022-12-18T12:24:18;5.97;;;2.72;;
10882;SDS011;5494;51.796;10.952;2022-12-18T12:27:04;4.38;;;3.15;;
10882;SDS011;5494;51.796;10.952;2022-12-18T12:29:50;3.15;;;2.00;;
10882;SDS011;5494;51.796;10.952;2022-12-18T12:32:37;4.68;;;2.70;;
10882;SDS011;5494;51.796;10.952;2022-12-18T12:35:29;3.88;;;2.80;;
10882;SDS011;5494;51.796;10.952;2022-12-18T12:38:12;3.33;;;2.40;;
10882;SDS011;5494;51.796;10.952;2022-12-18T12:40:49;3.95;;;2.67;;
10882;SDS011;5494;51.796;10.952;2022-12-18T12:43:32;3.13;;;1.98;;
10882;SDS011;5494;51.796;10.952;2022-12-18T12:46:16;3.30;;;2.03;;
10882;SDS011;5494;51.796;10.952;2022-12-18T12:48:51;3.90;;;2.13;;
10882;SDS011;5494;51.796;10.952;2022-12-18T12:51:25;5.90;;;2.17;;
10882;SDS011;5494;51.796;10.952;2022-12-18T12:53:56;3.35;;;2.17;;
10882;SDS011;5494;51.796;10.952;2022-12-18T12:56:30;5.22;;;2.63;;
10882;SDS011;5494;51.796;10.952;2022-12-18T12:59:11;6.15;;;2.70;;
10882;SDS011;5494;51.796;10.952;2022-12-18T13:01:52;5.22;;;2.72;;
10882;SDS011;5494;51.796;10.952;2022-12-18T13:04:28;2.88;;;2.10;;
10882;SDS011;5494;51.796;10.952;2022-12-18T13:07:10;3.45;;;2.10;;
10882;SDS011;5494;51.796;10.952;2022-12-18T13:13:04;2.15;;;1.20;;
10882;SDS011;5494;51.796;10.952;2022-12-18T13:15:36;3.30;;;1.15;;
10882;SDS011;5494;51.796;10.952;2022-12-18T13:18:15;3.45;;;1.20;;
10882;SDS011;5494;51.796;10.952;2022-12-18T13:20:47;4.00;;;1.80;;
10882;SDS011;5494;51.796;10.952;2022-12-18T13:23:30;2.08;;;1.40;;
10882;SDS011;5494;51.796;10.952;2022-12-18T13:26:28;1.88;;;1.35;;
10882;SDS011;5494;51.796;10.952;2022-12-18T13:29:01;2.30;;;1.55;;
10882;SDS011;5494;51.796;10.952;2022-12-18T13:34:28;3.55;;;1.80;;
10882;SDS011;5494;51.796;10.952;2022-12-18T13:43:26;2.78;;;1.60;;
10882;SDS011;5494;51.796;10.952;2022-12-18T13:46:01;2.28;;;1.50;;
10882;SDS011;5494;51.796;10.952;2022-12-18T13:48:36;3.70;;;2.70;;
10882;SDS011;5494;51.796;10.952;2022-12-18T13:51:07;5.38;;;2.42;;
10882;SDS011;5494;51.796;10.952;2022-12-18T13:53:44;3.35;;;2.53;;
10882;SDS011;5494;51.796;10.952;2022-12-18T13:56:17;3.97;;;2.90;;
10882;SDS011;5494;51.796;10.952;2022-12-18T13:59:11;2.75;;;1.88;;
10882;SDS011;5494;51.796;10.952;2022-12-18T14:01:46;5.65;;;2.60;;
10882;SDS011;5494;51.796;10.952;2022-12-18T14:04:20;3.08;;;1.80;;
10882;SDS011;5494;51.796;10.952;2022-12-18T14:06:55;5.25;;;2.45;;
10882;SDS011;5494;51.796;10.952;2022-12-18T14:09:29;4.13;;;2.60;;
10882;SDS011;5494;51.796;10.952;2022-12-18T14:12:05;8.82;;;3.88;;
10882;SDS011;5494;51.796;10.952;2022-12-18T14:14:52;6.28;;;4.07;;
10882;SDS011;5494;51.796;10.952;2022-12-18T14:17:23;9.57;;;4.88;;
10882;SDS011;5494;51.796;10.952;2022-12-18T14:19:51;8.90;;;4.90;;
10882;SDS011;5494;51.796;10.952;2022-12-18T14:22:20;8.57;;;4.10;;
10882;SDS011;5494;51.796;10.952;2022-12-18T14:25:05;3.15;;;2.15;;
10882;SDS011;5494;51.796;10.952;2022-12-18T14:27:44;3.85;;;2.42;;
10882;SDS011;5494;51.796;10.952;2022-12-18T14:30:28;3.90;;;2.05;;
10882;SDS011;5494;51.796;10.952;2022-12-18T14:33:02;2.35;;;1.50;;
10882;SDS011;5494;51.796;10.952;2022-12-18T14:35:34;3.08;;;1.88;;
10882;SDS011;5494;51.796;10.952;2022-12-18T14:38:20;2.75;;;2.10;;
10882;SDS011;5494;51.796;10.952;2022-12-18T14:40:52;3.85;;;2.30;;
10882;SDS011;5494;51.796;10.952;2022-12-18T14:43:22;3.60;;;2.30;;
10882;SDS011;5494;51.796;10.952;2022-12-18T14:45:51;4.30;;;2.88;;
10882;SDS011;5494;51.796;10.952;2022-12-18T14:48:21;7.50;;;2.33;;
10882;SDS011;5494;51.796;10.952;2022-12-18T14:51:04;3.67;;;2.50;;
10882;SDS011;5494;51.796;10.952;2022-12-18T14:53:42;4.05;;;2.42;;
10882;SDS011;5494;51.796;10.952;2022-12-18T14:56:20;3.55;;;2.25;;
10882;SDS011;5494;51.796;10.952;2022-12-18T14:58:53;5.07;;;2.45;;
10882;SDS011;5494;51.796;10.952;2022-12-18T15:01:25;7.15;;;2.88;;
10882;SDS011;5494;51.796;10.952;2022-12-18T15:03:58;4.47;;;2.72;;
10882;SDS011;5494;51.796;10.952;2022-12-18T15:06:29;3.10;;;1.90;;
10882;SDS011;5494;51.796;10.952;2022-12-18T15:09:01;3.25;;;1.80;;
10882;SDS011;5494;51.796;10.952;2022-12-18T15:11:44;3.47;;;2.42;;
10882;SDS011;5494;51.796;10.952;2022-12-18T15:14:23;3.42;;;2.42;;
10882;SDS011;5494;51.796;10.952;2022-12-18T15:17:05;3.97;;;2.35;;
10882;SDS011;5494;51.796;10.952;2022-12-18T15:19:45;2.92;;;2.08;;
10882;SDS011;5494;51.796;10.952;2022-12-18T15:22:20;3.35;;;2.45;;
10882;SDS011;5494;51.796;10.952;2022-12-18T15:24:55;3.55;;;2.10;;
10882;SDS011;5494;51.796;10.952;2022-12-18T15:27:26;2.67;;;1.65;;
10882;SDS011;5494;51.796;10.952;2022-12-18T15:30:10;1.90;;;1.27;;
10882;SDS011;5494;51.796;10.952;2022-12-18T15:32:47;2.53;;;1.75;;
10882;SDS011;5494;51.796;10.952;2022-12-18T15:35:18;3.08;;;1.75;;
10882;SDS011;5494;51.796;10.952;2022-12-18T15:37:49;2.92;;;1.70;;
10882;SDS011;5494;51.796;10.952;2022-12-18T15:40:19;3.47;;;2.25;;
10882;SDS011;5494;51.796;10.952;2022-12-18T15:42:51;4.18;;;2.50;;